createdAt,value
2018-02-08T00:00:24.391Z,19.07
2018-02-08T00:02:52.504Z,20.10
2018-02-08T00:05:20.602Z,19.27
2018-02-08T00:07:48.726Z,20.03
2018-02-08T00:10:17.752Z,20.43
2018-02-08T00:12:45.865Z,20.50
2018-02-08T00:15:13.979Z,19.93
2018-02-08T00:17:42.099Z,20.07
2018-02-08T00:20:10.209Z,20.47
2018-02-08T00:22:45.974Z,21.30
2018-02-08T00:25:14.077Z,20.43
2018-02-08T00:27:42.199Z,20.73
2018-02-08T00:30:10.302Z,19.80
2018-02-08T00:32:38.422Z,18.93
2018-02-08T00:35:06.540Z,19.80
2018-02-08T00:37:34.664Z,21.40
2018-02-08T00:40:02.800Z,20.50
2018-02-08T00:42:30.919Z,21.10
2018-02-08T00:44:59.045Z,20.10
2018-02-08T00:47:27.155Z,21.00
2018-02-08T00:49:55.292Z,21.13
2018-02-08T00:52:23.397Z,20.57
2018-02-08T00:54:51.615Z,20.63
2018-02-08T00:57:19.740Z,21.00
2018-02-08T00:59:47.865Z,20.43
2018-02-08T01:02:15.994Z,21.20
2018-02-08T01:04:44.305Z,20.30
2018-02-08T01:07:12.391Z,20.17
2018-02-08T01:09:40.529Z,21.53
2018-02-08T01:12:08.653Z,21.00
2018-02-08T01:14:36.791Z,21.70
2018-02-08T01:17:04.902Z,21.13
2018-02-08T01:19:33.025Z,20.17
2018-02-08T01:22:01.127Z,22.03
2018-02-08T01:24:29.278Z,20.83
2018-02-08T01:26:57.406Z,20.87
2018-02-08T01:29:25.528Z,20.60
2018-02-08T01:31:53.630Z,21.37
2018-02-08T01:34:21.750Z,22.10
2018-02-08T01:36:49.868Z,21.17
2018-02-08T01:39:17.995Z,22.27
2018-02-08T01:41:46.113Z,21.47
2018-02-08T01:44:14.238Z,21.80
2018-02-08T01:46:42.370Z,22.27
2018-02-08T01:49:10.493Z,22.43
2018-02-08T01:51:38.598Z,21.77
2018-02-08T01:54:06.720Z,21.40
2018-02-08T01:56:34.859Z,22.13
2018-02-08T01:59:02.963Z,22.23
2018-02-08T02:01:31.088Z,20.70
2018-02-08T02:03:59.201Z,20.87
2018-02-08T02:06:27.351Z,20.87
2018-02-08T02:11:48.824Z,21.40
2018-02-08T02:14:16.937Z,21.27
2018-02-08T02:16:45.053Z,22.13
2018-02-08T02:19:13.177Z,22.13
2018-02-08T02:21:41.286Z,21.57
2018-02-08T02:24:09.412Z,20.63
2018-02-08T02:26:37.517Z,21.80
2018-02-08T02:29:05.652Z,22.03
2018-02-08T02:31:33.758Z,20.07
2018-02-08T02:34:01.884Z,21.23
2018-02-08T02:36:30.024Z,21.63
2018-02-08T02:38:58.145Z,21.00
2018-02-08T02:41:26.265Z,19.63
2018-02-08T02:43:54.397Z,20.87
2018-02-08T02:46:22.529Z,23.33
2018-02-08T02:48:50.678Z,23.23
2018-02-08T02:51:18.767Z,21.30
2018-02-08T02:53:46.885Z,22.30
2018-02-08T02:56:15.006Z,22.67
2018-02-08T02:58:43.125Z,22.13
2018-02-08T03:01:11.238Z,20.67
2018-02-08T03:03:39.346Z,21.53
2018-02-08T03:06:07.478Z,21.47
2018-02-08T03:08:35.595Z,21.17
2018-02-08T03:11:03.716Z,21.13
2018-02-08T03:13:31.850Z,21.47
2018-02-08T03:15:59.968Z,22.53
2018-02-08T03:18:28.096Z,22.27
2018-02-08T03:20:59.923Z,23.60
2018-02-08T03:23:28.049Z,23.97
2018-02-08T03:25:56.168Z,23.67
2018-02-08T03:28:24.304Z,22.53
2018-02-08T03:31:13.249Z,23.00
2018-02-08T03:33:41.365Z,22.20
2018-02-08T03:36:09.472Z,22.43
2018-02-08T03:38:37.597Z,22.67
2018-02-08T03:41:05.714Z,21.67
2018-02-08T03:43:33.822Z,21.93
2018-02-08T03:46:01.934Z,22.43
2018-02-08T03:48:30.054Z,22.57
2018-02-08T03:50:58.180Z,22.23
2018-02-08T03:53:26.300Z,22.67
2018-02-08T03:55:54.416Z,22.33
2018-02-08T03:58:22.534Z,22.27
2018-02-08T04:00:50.656Z,21.73
2018-02-08T04:03:18.752Z,22.50
2018-02-08T04:05:46.879Z,22.80
2018-02-08T04:08:14.987Z,22.20
2018-02-08T04:10:43.103Z,22.40
2018-02-08T04:13:19.393Z,21.93
2018-02-08T04:15:47.524Z,22.63
2018-02-08T04:18:15.640Z,23.43
2018-02-08T04:20:43.774Z,21.10
2018-02-08T04:23:12.042Z,22.10
2018-02-08T04:25:40.148Z,21.83
2018-02-08T04:28:08.263Z,22.40
2018-02-08T04:30:36.370Z,21.63
2018-02-08T04:33:04.497Z,21.10
2018-02-08T04:35:32.606Z,22.43
2018-02-08T04:38:00.736Z,21.27
2018-02-08T04:40:40.632Z,21.50
2018-02-08T04:43:20.630Z,21.87
2018-02-08T04:46:00.464Z,21.77
2018-02-08T04:48:28.582Z,21.83
2018-02-08T04:50:56.691Z,21.93
2018-02-08T04:53:25.727Z,22.37
2018-02-08T04:55:53.844Z,22.93
2018-02-08T04:58:26.384Z,22.77
2018-02-08T05:00:54.521Z,23.23
2018-02-08T05:03:25.857Z,22.93
2018-02-08T05:05:55.938Z,21.83
2018-02-08T05:08:24.046Z,23.30
2018-02-08T05:10:52.162Z,21.53
2018-02-08T05:13:20.270Z,22.17
2018-02-08T05:15:48.409Z,23.23
2018-02-08T05:18:16.524Z,23.23
2018-02-08T05:20:44.643Z,22.87
2018-02-08T05:23:12.781Z,23.97
2018-02-08T05:25:40.914Z,22.07
2018-02-08T05:28:09.020Z,23.30
2018-02-08T05:30:39.096Z,22.27
2018-02-08T05:33:07.208Z,22.03
2018-02-08T05:35:35.310Z,22.27
2018-02-08T05:38:15.784Z,24.03
2018-02-08T05:40:43.909Z,23.57
2018-02-08T05:43:12.022Z,23.23
2018-02-08T05:45:40.153Z,24.00
2018-02-08T05:48:08.270Z,23.50
2018-02-08T05:50:36.391Z,23.53
2018-02-08T05:53:04.508Z,23.73
2018-02-08T05:55:36.510Z,23.60
2018-02-08T05:58:04.643Z,23.17
2018-02-08T06:00:46.246Z,23.80
2018-02-08T06:03:14.374Z,23.93
2018-02-08T06:05:42.488Z,24.30
2018-02-08T06:08:16.492Z,24.00
2018-02-08T06:10:52.558Z,23.23
2018-02-08T06:13:20.673Z,23.77
2018-02-08T06:15:48.793Z,22.40
2018-02-08T06:18:16.920Z,22.77
2018-02-08T06:20:45.023Z,24.27
2018-02-08T06:23:13.166Z,23.23
2018-02-08T06:25:41.277Z,24.73
2018-02-08T06:28:15.716Z,23.17
2018-02-08T06:30:43.822Z,22.43
2018-02-08T06:33:11.961Z,23.33
2018-02-08T06:35:40.080Z,22.43
2018-02-08T06:38:09.120Z,24.00
2018-02-08T06:40:39.126Z,22.10
2018-02-08T06:43:07.253Z,23.60
2018-02-08T06:45:35.402Z,23.27
2018-02-08T06:48:03.531Z,22.47
2018-02-08T06:50:41.480Z,22.20
2018-02-08T06:53:09.608Z,23.93
2018-02-08T06:55:37.718Z,23.17
2018-02-08T06:58:05.829Z,22.70
2018-02-08T07:00:33.938Z,23.67
2018-02-08T07:03:02.058Z,24.40
2018-02-08T07:05:30.162Z,23.50
2018-02-08T07:08:01.802Z,25.60
2018-02-08T07:10:29.920Z,24.57
2018-02-08T07:12:58.082Z,23.97
2018-02-08T07:15:26.151Z,23.10
2018-02-08T07:17:54.296Z,24.43
2018-02-08T07:20:22.413Z,24.50
2018-02-08T07:22:50.525Z,24.43
2018-02-08T07:25:18.649Z,22.93
2018-02-08T07:27:46.784Z,22.97
2018-02-08T07:30:14.907Z,22.60
2018-02-08T07:32:43.020Z,22.80
2018-02-08T07:35:11.164Z,24.73
2018-02-08T07:37:39.294Z,24.07
2018-02-08T07:40:07.420Z,24.40
2018-02-08T07:42:35.532Z,24.73
2018-02-08T07:45:08.599Z,23.87
2018-02-08T07:47:36.694Z,23.10
2018-02-08T07:50:04.805Z,24.60
2018-02-08T07:52:32.918Z,23.73
2018-02-08T07:55:01.034Z,24.03
2018-02-08T07:57:32.980Z,23.93
2018-02-08T08:00:01.105Z,24.47
2018-02-08T08:02:29.234Z,24.20
2018-02-08T08:04:57.344Z,24.50
2018-02-08T08:07:25.468Z,25.30
2018-02-08T08:09:53.619Z,24.67
2018-02-08T08:12:21.718Z,25.40
2018-02-08T08:14:49.865Z,24.17
2018-02-08T08:17:18.074Z,25.03
2018-02-08T08:19:46.183Z,25.70
2018-02-08T08:22:14.305Z,25.40
2018-02-08T08:24:42.421Z,24.73
2018-02-08T08:27:10.546Z,25.23
2018-02-08T08:29:38.663Z,26.53
2018-02-08T08:32:06.782Z,26.37
2018-02-08T08:34:34.900Z,25.57
2018-02-08T08:37:04.918Z,26.30
2018-02-08T08:39:33.027Z,24.60
2018-02-08T08:42:01.154Z,24.37
2018-02-08T08:44:32.888Z,27.77
2018-02-08T08:47:00.982Z,25.73
2018-02-08T08:49:29.120Z,25.50
2018-02-08T08:51:57.226Z,26.80
2018-02-08T08:54:25.347Z,26.60
2018-02-08T08:56:53.464Z,26.33
2018-02-08T08:59:21.606Z,27.93
2018-02-08T09:01:49.726Z,25.53
2018-02-08T09:04:21.953Z,25.90
2018-02-08T09:06:50.014Z,26.57
2018-02-08T09:09:18.134Z,26.60
2018-02-08T09:11:48.194Z,26.70
2018-02-08T09:14:16.311Z,26.93
2018-02-08T09:16:44.460Z,26.17
2018-02-08T09:19:12.570Z,26.73
2018-02-08T09:21:40.705Z,26.87
2018-02-08T09:24:08.826Z,27.00
2018-02-08T09:26:36.937Z,27.27
2018-02-08T09:29:05.065Z,27.97
2018-02-08T09:31:34.124Z,27.70
2018-02-08T09:34:02.259Z,28.07
2018-02-08T09:36:30.389Z,26.93
2018-02-08T09:38:58.489Z,28.40
2018-02-08T09:41:26.616Z,27.60
2018-02-08T09:43:54.744Z,29.27
2018-02-08T09:46:22.854Z,27.13
2018-02-08T09:48:51.018Z,27.47
2018-02-08T09:51:19.122Z,28.17
2018-02-08T09:53:47.269Z,29.67
2018-02-08T09:56:15.389Z,30.23
2018-02-08T09:58:43.494Z,31.00
2018-02-08T10:01:11.620Z,32.60
2018-02-08T10:03:39.732Z,32.70
2018-02-08T10:06:07.860Z,31.17
2018-02-08T10:08:35.984Z,30.20
2018-02-08T10:11:04.100Z,32.50
2018-02-08T10:13:32.223Z,32.70
2018-02-08T10:16:00.337Z,30.77
2018-02-08T10:18:28.448Z,30.70
2018-02-08T10:20:56.566Z,31.93
2018-02-08T10:23:24.688Z,32.93
2018-02-08T10:25:52.793Z,34.67
2018-02-08T10:28:20.906Z,32.40
2018-02-08T10:30:49.051Z,33.17
2018-02-08T10:33:29.844Z,32.93
2018-02-08T10:35:57.969Z,35.60
2018-02-08T10:38:26.096Z,32.60
2018-02-08T10:40:54.220Z,35.00
2018-02-08T10:43:22.336Z,33.77
2018-02-08T10:45:50.446Z,34.30
2018-02-08T10:48:18.550Z,34.07
2018-02-08T10:50:46.676Z,33.73
2018-02-08T10:53:14.823Z,34.10
2018-02-08T10:55:42.952Z,34.53
2018-02-08T10:58:11.093Z,35.23
2018-02-08T11:00:39.224Z,34.33
2018-02-08T11:03:07.333Z,33.43
2018-02-08T11:05:35.434Z,33.50
2018-02-08T11:08:03.582Z,32.87
2018-02-08T11:10:31.691Z,34.47
2018-02-08T11:12:59.829Z,33.17
2018-02-08T11:15:27.936Z,34.63
2018-02-08T11:17:56.052Z,35.77
2018-02-08T11:20:24.180Z,30.90
2018-02-08T11:22:52.309Z,30.63
2018-02-08T11:25:20.436Z,32.37
2018-02-08T11:27:48.556Z,31.20
2018-02-08T11:30:16.677Z,30.33
2018-02-08T11:32:44.792Z,30.70
2018-02-08T11:35:12.900Z,31.00
2018-02-08T11:37:41.012Z,31.43
2018-02-08T11:40:09.138Z,32.60
2018-02-08T11:42:37.245Z,29.60
2018-02-08T11:45:05.374Z,30.87
2018-02-08T11:47:44.021Z,30.73
2018-02-08T11:50:12.150Z,31.73
2018-02-08T11:52:40.276Z,30.47
2018-02-08T11:55:08.391Z,29.83
2018-02-08T11:57:36.494Z,31.23
2018-02-08T12:00:04.603Z,29.50
2018-02-08T12:02:32.720Z,29.93
2018-02-08T12:05:00.854Z,28.53
2018-02-08T12:07:33.978Z,29.07
2018-02-08T12:10:07.468Z,28.90
2018-02-08T12:12:35.596Z,29.60
2018-02-08T12:15:05.613Z,29.30
2018-02-08T12:17:33.796Z,31.20
2018-02-08T12:20:01.928Z,28.90
2018-02-08T12:22:37.010Z,28.27
2018-02-08T12:25:05.316Z,30.17
2018-02-08T12:27:33.410Z,31.47
2018-02-08T12:30:01.540Z,30.73
2018-02-08T12:32:30.560Z,29.43
2018-02-08T12:34:58.703Z,29.67
2018-02-08T12:37:35.020Z,29.83
2018-02-08T12:40:03.168Z,29.17
2018-02-08T12:42:31.306Z,29.00
2018-02-08T12:44:59.418Z,29.80
2018-02-08T12:47:27.574Z,28.27
2018-02-08T12:49:55.688Z,29.53
2018-02-08T12:52:23.828Z,28.43
2018-02-08T12:54:51.926Z,30.37
2018-02-08T12:57:20.050Z,27.37
2018-02-08T12:59:48.277Z,29.53
2018-02-08T13:02:16.440Z,29.03
2018-02-08T13:04:44.789Z,26.00
2018-02-08T13:07:12.898Z,26.37
2018-02-08T13:09:41.022Z,26.20
2018-02-08T13:12:09.162Z,25.80
2018-02-08T13:14:37.273Z,26.37
2018-02-08T13:17:05.404Z,25.13
2018-02-08T13:19:33.537Z,26.20
2018-02-08T13:22:01.795Z,26.67
2018-02-08T13:24:29.904Z,24.27
2018-02-08T13:26:58.010Z,25.03
2018-02-08T13:29:27.152Z,23.80
2018-02-08T13:31:55.269Z,24.13
2018-02-08T13:34:27.467Z,24.53
2018-02-08T13:36:55.579Z,23.83
2018-02-08T13:42:32.131Z,23.77
2018-02-08T13:45:01.642Z,24.03
2018-02-08T13:47:51.656Z,24.43
2018-02-08T13:50:41.392Z,24.13
2018-02-08T13:53:24.627Z,24.70
2018-02-08T13:56:01.593Z,23.73
2018-02-08T13:58:30.644Z,25.47
2018-02-08T14:00:59.313Z,24.53
2018-02-08T14:03:30.642Z,24.10
2018-02-08T14:05:58.837Z,23.17
2018-02-08T14:08:27.070Z,24.00
2018-02-08T14:10:55.386Z,25.97
2018-02-08T14:13:23.590Z,24.43
2018-02-08T14:15:51.829Z,25.53
2018-02-08T14:18:19.985Z,25.50
2018-02-08T14:20:48.179Z,26.60
2018-02-08T14:23:18.199Z,25.97
2018-02-08T14:25:46.475Z,27.07
2018-02-08T14:28:14.691Z,27.33
2018-02-08T14:30:42.937Z,28.23
2018-02-08T14:33:11.173Z,26.87
2018-02-08T14:35:40.476Z,25.77
2018-02-08T14:38:08.642Z,25.63
2018-02-08T14:40:36.872Z,27.60
2018-02-08T14:43:06.114Z,25.17
2018-02-08T14:45:34.334Z,24.23
2018-02-08T14:48:02.502Z,24.23
2018-02-08T14:50:30.755Z,26.03
2018-02-08T14:52:58.929Z,27.43
2018-02-08T14:55:27.135Z,25.07
2018-02-08T14:57:55.335Z,26.33
2018-02-08T15:00:23.498Z,26.37
2018-02-08T15:02:51.816Z,25.37
2018-02-08T15:05:21.143Z,27.60
2018-02-08T15:07:49.444Z,28.23
2018-02-08T15:10:17.641Z,26.47
2018-02-08T15:12:45.869Z,26.93
2018-02-08T15:15:14.095Z,26.23
2018-02-08T15:17:42.291Z,25.07
2018-02-08T15:20:10.600Z,27.23
2018-02-08T15:22:38.780Z,27.00
2018-02-08T15:25:07.093Z,25.53
2018-02-08T15:27:35.296Z,26.37
2018-02-08T15:30:03.459Z,23.60
2018-02-08T15:32:31.742Z,25.03
2018-02-08T15:34:59.969Z,25.70
2018-02-08T15:37:28.186Z,24.80
2018-02-08T15:39:56.434Z,25.53
2018-02-08T15:42:24.867Z,24.23
2018-02-08T15:44:53.071Z,23.57
2018-02-08T15:47:21.330Z,23.67
2018-02-08T15:49:49.509Z,23.07
2018-02-08T15:52:17.741Z,24.37
2018-02-08T15:54:45.941Z,23.27
2018-02-08T15:57:14.181Z,22.90
2018-02-08T15:59:42.391Z,22.13
2018-02-08T16:02:10.602Z,23.03
2018-02-08T16:04:38.871Z,23.53
2018-02-08T16:07:07.075Z,21.73
2018-02-08T16:09:35.338Z,23.07
2018-02-08T16:12:03.615Z,22.57
2018-02-08T16:14:31.771Z,22.60
2018-02-08T16:16:59.970Z,23.63
2018-02-08T16:19:28.194Z,21.93
2018-02-08T16:21:56.417Z,21.70
2018-02-08T16:24:24.618Z,23.63
2018-02-08T16:26:53.282Z,22.40
2018-02-08T16:29:21.675Z,21.80
2018-02-08T16:31:49.922Z,22.13
2018-02-08T16:34:18.112Z,22.07
2018-02-08T16:36:46.311Z,22.60
2018-02-08T16:39:14.525Z,21.37
2018-02-08T16:41:42.700Z,22.03
2018-02-08T16:44:10.890Z,22.40
2018-02-08T16:46:39.070Z,20.90
2018-02-08T16:49:08.299Z,21.37
2018-02-08T16:51:38.652Z,23.00
2018-02-08T16:54:06.877Z,23.10
2018-02-08T16:56:36.895Z,23.43
2018-02-08T16:59:05.082Z,24.10
2018-02-08T17:01:33.504Z,23.23
2018-02-08T17:04:01.841Z,23.87
2018-02-08T17:06:30.073Z,23.70
2018-02-08T17:08:58.345Z,21.73
2018-02-08T17:11:26.577Z,23.97
2018-02-08T17:13:54.775Z,23.60
2018-02-08T17:16:22.975Z,23.70
2018-02-08T17:18:51.177Z,24.07
2018-02-08T17:21:19.373Z,24.40
2018-02-08T17:23:47.585Z,24.30
2018-02-08T17:26:15.810Z,24.07
2018-02-08T17:28:45.967Z,24.73
2018-02-08T17:31:14.166Z,24.27
2018-02-08T17:33:42.355Z,26.20
2018-02-08T17:36:10.570Z,23.10
2018-02-08T17:38:38.803Z,25.07
2018-02-08T17:41:06.968Z,25.53
2018-02-08T17:43:35.227Z,23.53
2018-02-08T17:46:03.439Z,24.83
2018-02-08T17:48:31.603Z,24.83
2018-02-08T17:50:59.787Z,24.97
2018-02-08T17:53:28.023Z,24.27
2018-02-08T17:55:56.311Z,24.93
2018-02-08T17:58:24.469Z,25.03
2018-02-08T18:00:52.650Z,26.20
2018-02-08T18:03:20.837Z,26.40
2018-02-08T18:05:49.035Z,26.33
2018-02-08T18:08:17.233Z,25.67
2018-02-08T18:10:45.434Z,25.57
2018-02-08T18:13:13.668Z,25.77
2018-02-08T18:15:42.049Z,25.30
2018-02-08T18:18:11.029Z,25.83
2018-02-08T18:20:39.533Z,25.40
2018-02-08T18:23:07.751Z,24.77
2018-02-08T18:25:36.004Z,26.47
2018-02-08T18:28:04.222Z,25.27
2018-02-08T18:30:32.471Z,25.83
2018-02-08T18:33:00.693Z,25.83
2018-02-08T18:35:28.989Z,25.73
2018-02-08T18:37:57.220Z,26.47
2018-02-08T18:40:25.496Z,27.17
2018-02-08T18:42:53.795Z,25.67
2018-02-08T18:45:22.001Z,26.77
2018-02-08T18:47:51.759Z,25.60
2018-02-08T18:50:20.020Z,25.43
2018-02-08T18:52:48.294Z,25.93
2018-02-08T18:55:16.544Z,26.07
2018-02-08T18:57:44.771Z,22.67
2018-02-08T19:00:12.955Z,24.80
2018-02-08T19:02:41.206Z,25.90
2018-02-08T19:05:09.374Z,25.63
2018-02-08T19:07:37.653Z,25.70
2018-02-08T19:10:05.812Z,26.47
2018-02-08T19:12:34.104Z,24.50
2018-02-08T19:15:02.328Z,25.07
2018-02-08T19:17:30.518Z,25.50
2018-02-08T19:19:58.738Z,26.33
2018-02-08T19:22:27.012Z,26.70
2018-02-08T19:24:55.254Z,26.20
2018-02-08T19:27:23.546Z,26.77
2018-02-08T19:29:51.724Z,27.33
2018-02-08T19:32:20.016Z,27.10
2018-02-08T19:34:48.223Z,27.47
2018-02-08T19:37:16.430Z,26.97
2018-02-08T19:39:44.618Z,27.07
2018-02-08T19:42:12.887Z,28.50
2018-02-08T19:44:41.146Z,27.00
2018-02-08T19:47:09.862Z,27.20
2018-02-08T19:49:38.014Z,27.03
2018-02-08T19:52:06.198Z,28.03
2018-02-08T19:54:34.378Z,27.57
2018-02-08T19:57:02.543Z,27.60
2018-02-08T19:59:30.760Z,27.70
2018-02-08T20:01:59.020Z,28.30
2018-02-08T20:04:27.209Z,28.47
2018-02-08T20:06:57.056Z,29.00
2018-02-08T20:09:25.244Z,28.40
2018-02-08T20:11:55.167Z,29.83
2018-02-08T20:14:29.094Z,29.70
2018-02-08T20:17:01.264Z,30.53
2018-02-08T20:19:33.155Z,31.67
2018-02-08T20:22:07.690Z,31.43
2018-02-08T20:24:35.858Z,32.90
2018-02-08T20:27:05.179Z,33.70
2018-02-08T20:29:33.375Z,34.43
2018-02-08T20:32:03.597Z,32.27
2018-02-08T20:34:31.860Z,33.23
2018-02-08T20:37:00.864Z,33.80
2018-02-08T20:39:29.134Z,34.23
2018-02-08T20:41:59.036Z,34.03
2018-02-08T20:44:27.258Z,35.50
2018-02-08T20:46:56.574Z,35.13
2018-02-08T20:49:24.775Z,36.20
2018-02-08T20:51:52.966Z,34.57
2018-02-08T20:54:22.156Z,34.03
2018-02-08T20:56:53.102Z,34.80
2018-02-08T20:59:21.295Z,38.57
2018-02-08T21:01:52.550Z,36.83
2018-02-08T21:04:22.670Z,36.23
2018-02-08T21:06:52.892Z,36.93
2018-02-08T21:09:21.154Z,36.40
2018-02-08T21:11:51.876Z,35.23
2018-02-08T21:14:20.165Z,37.37
2018-02-08T21:16:48.345Z,36.60
2018-02-08T21:19:16.545Z,35.63
2018-02-08T21:21:46.118Z,35.37
2018-02-08T21:24:15.194Z,38.17
2018-02-08T21:26:45.238Z,35.13
2018-02-08T21:29:15.503Z,35.10
2018-02-08T21:31:43.695Z,37.77
2018-02-08T21:34:13.872Z,37.13
2018-02-08T21:36:42.128Z,36.23
2018-02-08T21:39:10.279Z,35.70
2018-02-08T21:41:39.739Z,36.23
2018-02-08T21:44:07.990Z,35.67
2018-02-08T21:46:36.243Z,37.13
2018-02-08T21:49:04.546Z,38.73
2018-02-08T21:51:32.826Z,38.37
2018-02-08T21:54:01.051Z,39.47
2018-02-08T21:56:29.233Z,35.23
2018-02-08T21:58:57.542Z,36.57
2018-02-08T22:01:25.757Z,37.27
2018-02-08T22:03:53.961Z,35.83
2018-02-08T22:06:22.156Z,37.80
2018-02-08T22:08:50.373Z,38.20
2018-02-08T22:11:18.605Z,37.63
2018-02-08T22:13:46.797Z,39.67
2018-02-08T22:16:15.010Z,37.00
2018-02-08T22:18:43.331Z,37.93
2018-02-08T22:21:11.600Z,37.63
2018-02-08T22:23:39.770Z,38.07
2018-02-08T22:26:07.985Z,38.93
2018-02-08T22:28:36.194Z,38.03
2018-02-08T22:31:04.429Z,36.47
2018-02-08T22:33:32.593Z,38.80
2018-02-08T22:36:02.583Z,38.73
2018-02-08T22:38:30.782Z,38.43
2018-02-08T22:40:59.018Z,39.67
2018-02-08T22:43:27.198Z,40.73
2018-02-08T22:45:55.400Z,38.57
2018-02-08T22:48:23.608Z,37.90
2018-02-08T22:50:51.770Z,39.73
2018-02-08T22:53:19.951Z,39.83
2018-02-08T22:55:48.195Z,39.37
2018-02-08T22:58:16.374Z,36.57
2018-02-08T23:00:44.670Z,38.87
2018-02-08T23:03:12.832Z,41.40
2018-02-08T23:05:41.076Z,38.37
2018-02-08T23:08:09.980Z,40.47
2018-02-08T23:10:38.190Z,41.27
2018-02-08T23:13:06.398Z,40.73
2018-02-08T23:15:34.558Z,41.13
2018-02-08T23:18:02.770Z,41.53
2018-02-08T23:20:31.018Z,42.00
2018-02-08T23:22:59.190Z,39.20
2018-02-08T23:25:27.380Z,41.97
2018-02-08T23:27:55.582Z,41.97
2018-02-08T23:30:23.823Z,41.27
2018-02-08T23:32:52.020Z,41.97
2018-02-08T23:35:20.236Z,41.53
2018-02-08T23:37:48.435Z,40.60
2018-02-08T23:40:16.654Z,42.40
2018-02-08T23:42:44.858Z,42.33
2018-02-08T23:45:13.026Z,42.63
2018-02-08T23:47:43.127Z,42.57
2018-02-08T23:50:11.367Z,42.47
2018-02-08T23:52:39.617Z,43.13
2018-02-08T23:55:07.809Z,42.83
2018-02-08T23:57:35.989Z,44.80
